createdAt,value
2019-04-04T00:01:47.770Z,8.00
2019-04-04T00:04:16.454Z,7.70
2019-04-04T00:06:45.984Z,7.80
2019-04-04T00:09:15.728Z,7.60
2019-04-04T00:11:45.353Z,8.13
2019-04-04T00:14:14.992Z,7.43
2019-04-04T00:16:44.781Z,8.37
2019-04-04T00:19:14.539Z,9.23
2019-04-04T00:21:44.231Z,8.83
2019-04-04T00:24:13.951Z,9.13
2019-04-04T00:26:43.523Z,9.00
2019-04-04T00:29:13.092Z,9.17
2019-04-04T00:31:42.891Z,10.67
2019-04-04T00:34:13.691Z,10.00
2019-04-04T00:36:43.768Z,10.77
2019-04-04T00:39:13.321Z,10.73
2019-04-04T00:41:44.830Z,11.40
2019-04-04T00:44:14.690Z,10.50
2019-04-04T00:46:44.243Z,11.30
2019-04-04T00:49:13.848Z,12.30
2019-04-04T00:51:43.626Z,13.10
2019-04-04T00:54:14.006Z,13.50
2019-04-04T00:56:44.192Z,12.73
2019-04-04T00:59:13.781Z,12.50
2019-04-04T01:01:43.455Z,12.57
2019-04-04T01:04:13.275Z,12.33
2019-04-04T01:06:42.861Z,12.53
2019-04-04T01:09:13.709Z,12.63
2019-04-04T01:11:43.842Z,12.83
2019-04-04T01:14:13.403Z,12.93
2019-04-04T01:16:42.903Z,14.73
2019-04-04T01:19:12.596Z,14.97
2019-04-04T01:21:42.236Z,14.50
2019-04-04T01:24:11.882Z,14.63
2019-04-04T01:26:41.537Z,16.10
2019-04-04T01:29:11.260Z,15.90
2019-04-04T01:31:40.907Z,17.00
2019-04-04T01:34:10.501Z,16.80
2019-04-04T01:36:40.023Z,17.30
2019-04-04T01:39:10.066Z,15.17
2019-04-04T01:41:39.781Z,14.93
2019-04-04T01:44:11.356Z,15.60
2019-04-04T01:46:40.797Z,14.73
2019-04-04T01:49:10.383Z,13.73
2019-04-04T01:51:40.118Z,15.23
2019-04-04T01:54:09.774Z,15.17
2019-04-04T01:56:39.461Z,15.10
2019-04-04T01:59:10.232Z,14.50
2019-04-04T02:01:40.435Z,15.37
2019-04-04T02:04:10.197Z,14.60
2019-04-04T02:06:39.928Z,14.53
2019-04-04T02:09:09.755Z,14.27
2019-04-04T02:11:39.377Z,14.80
2019-04-04T02:14:09.895Z,15.83
2019-04-04T02:16:40.485Z,16.27
2019-04-04T02:19:10.357Z,17.43
2019-04-04T02:21:40.069Z,16.43
2019-04-04T02:24:09.737Z,16.93
2019-04-04T02:26:39.320Z,15.70
2019-04-04T02:29:11.068Z,15.87
2019-04-04T02:31:44.894Z,14.77
2019-04-04T02:34:14.982Z,13.33
2019-04-04T02:36:48.725Z,14.53
2019-04-04T02:39:19.133Z,13.70
2019-04-04T02:41:49.329Z,13.13
2019-04-04T02:44:19.472Z,13.03
2019-04-04T02:46:49.054Z,13.10
2019-04-04T02:49:18.676Z,13.03
2019-04-04T02:51:48.360Z,13.50
2019-04-04T02:54:18.177Z,13.37
2019-04-04T02:56:47.734Z,13.27
2019-04-04T02:59:21.450Z,12.73
2019-04-04T03:01:49.038Z,13.50
2019-04-04T03:04:18.774Z,13.97
2019-04-04T03:06:48.412Z,14.37
2019-04-04T03:09:18.267Z,14.43
2019-04-04T03:11:47.836Z,13.87
2019-04-04T03:14:17.616Z,15.50
2019-04-04T03:16:47.161Z,15.07
2019-04-04T03:19:16.907Z,14.43
2019-04-04T03:21:46.524Z,15.80
2019-04-04T03:24:16.112Z,15.50
2019-04-04T03:26:45.665Z,15.37
2019-04-04T03:29:15.333Z,16.93
2019-04-04T03:31:44.961Z,16.47
2019-04-04T03:34:14.688Z,17.57
2019-04-04T03:36:44.577Z,19.37
2019-04-04T03:39:14.169Z,17.13
2019-04-04T03:41:45.378Z,18.17
2019-04-04T03:44:15.055Z,17.60
2019-04-04T03:46:44.687Z,18.77
2019-04-04T03:49:14.174Z,17.23
2019-04-04T03:51:43.858Z,17.60
2019-04-04T03:54:15.129Z,17.67
2019-04-04T03:56:44.620Z,17.60
2019-04-04T03:59:14.348Z,18.83
2019-04-04T04:01:46.492Z,19.33
2019-04-04T04:04:15.188Z,19.17
2019-04-04T04:06:44.957Z,19.17
2019-04-04T04:09:14.520Z,19.60
2019-04-04T04:11:44.291Z,19.43
2019-04-04T04:14:13.864Z,20.30
2019-04-04T04:16:43.646Z,20.77
2019-04-04T04:19:13.243Z,20.77
2019-04-04T04:21:43.873Z,21.13
2019-04-04T04:24:13.686Z,21.93
2019-04-04T04:26:43.527Z,21.70
2019-04-04T04:29:13.171Z,21.03
2019-04-04T04:31:42.709Z,22.13
2019-04-04T04:34:12.252Z,22.07
2019-04-04T04:36:41.864Z,21.07
2019-04-04T04:39:11.593Z,22.80
2019-04-04T04:41:41.175Z,22.47
2019-04-04T04:44:11.301Z,23.03
2019-04-04T04:46:41.391Z,24.43
2019-04-04T04:49:11.052Z,23.77
2019-04-04T04:51:43.233Z,23.47
2019-04-04T04:54:12.108Z,23.30
2019-04-04T04:56:41.900Z,19.97
2019-04-04T04:59:13.319Z,21.00
2019-04-04T05:01:43.059Z,20.73
2019-04-04T05:04:12.839Z,18.53
2019-04-04T05:06:42.466Z,19.10
2019-04-04T05:09:13.988Z,19.77
2019-04-04T05:11:43.824Z,19.83
2019-04-04T05:14:13.750Z,19.80
2019-04-04T05:16:44.007Z,20.53
2019-04-04T05:19:17.102Z,19.47
2019-04-04T05:21:47.342Z,23.83
2019-04-04T05:24:18.098Z,22.67
2019-04-04T05:26:48.590Z,19.47
2019-04-04T05:29:18.659Z,18.87
2019-04-04T05:31:50.059Z,18.27
2019-04-04T05:34:19.642Z,19.17
2019-04-04T05:36:49.378Z,19.70
2019-04-04T05:39:19.311Z,19.57
2019-04-04T05:41:48.966Z,20.80
2019-04-04T05:44:18.792Z,19.20
2019-04-04T05:46:51.182Z,19.03
2019-04-04T05:49:20.347Z,19.83
2019-04-04T05:51:50.863Z,18.93
2019-04-04T05:54:20.539Z,20.13
2019-04-04T05:56:50.318Z,20.83
2019-04-04T05:59:19.975Z,19.73
2019-04-04T06:01:49.531Z,21.30
2019-04-04T06:04:35.302Z,20.77
2019-04-04T06:07:10.387Z,21.97
2019-04-04T06:09:42.086Z,20.27
2019-04-04T06:12:11.774Z,20.63
2019-04-04T06:14:41.465Z,21.00
2019-04-04T06:17:11.093Z,19.43
2019-04-04T06:19:40.830Z,18.20
2019-04-04T06:22:10.492Z,18.50
2019-04-04T06:24:40.341Z,20.27
2019-04-04T06:27:09.962Z,20.30
2019-04-04T06:29:39.815Z,20.73
2019-04-04T06:32:09.579Z,18.50
2019-04-04T06:34:39.325Z,18.60
2019-04-04T06:37:08.955Z,18.57
2019-04-04T06:39:38.520Z,17.87
2019-04-04T06:42:11.175Z,18.20
2019-04-04T06:44:39.543Z,19.33
2019-04-04T06:47:09.597Z,19.27
2019-04-04T06:49:39.357Z,18.07
2019-04-04T06:52:09.450Z,18.83
2019-04-04T06:54:39.368Z,18.73
2019-04-04T06:57:08.918Z,18.33
2019-04-04T06:59:38.546Z,18.30
2019-04-04T07:02:09.667Z,18.67
2019-04-04T07:04:39.246Z,17.43
2019-04-04T07:07:08.989Z,17.13
2019-04-04T07:09:38.528Z,17.77
2019-04-04T07:12:20.331Z,17.47
2019-04-04T07:14:45.413Z,15.43
2019-04-04T07:17:11.823Z,16.53
2019-04-04T07:19:41.324Z,16.33
2019-04-04T07:22:11.010Z,15.73
2019-04-04T07:24:40.584Z,17.23
2019-04-04T07:27:10.328Z,16.77
2019-04-04T07:29:40.000Z,16.77
2019-04-04T07:32:10.215Z,16.90
2019-04-04T07:34:40.067Z,16.67
2019-04-04T07:37:09.678Z,16.83
2019-04-04T07:39:39.419Z,15.37
2019-04-04T07:42:09.254Z,16.53
2019-04-04T07:44:38.916Z,17.00
2019-04-04T07:47:08.615Z,16.80
2019-04-04T07:49:40.191Z,16.77
2019-04-04T07:52:09.684Z,17.67
2019-04-04T07:54:39.387Z,16.37
2019-04-04T07:57:09.248Z,15.43
2019-04-04T07:59:39.086Z,14.57
2019-04-04T08:02:08.742Z,14.10
2019-04-04T08:04:38.470Z,14.97
2019-04-04T08:07:08.689Z,15.73
2019-04-04T08:09:38.303Z,15.27
2019-04-04T08:12:07.998Z,16.07
2019-04-04T08:14:37.671Z,16.60
2019-04-04T08:17:07.460Z,15.97
2019-04-04T08:19:37.115Z,15.63
2019-04-04T08:22:06.859Z,16.03
2019-04-04T08:24:36.604Z,15.87
2019-04-04T08:27:06.279Z,16.37
2019-04-04T08:29:35.897Z,16.83
2019-04-04T08:32:05.687Z,17.13
2019-04-04T08:34:36.555Z,17.07
2019-04-04T08:37:06.514Z,15.83
2019-04-04T08:39:36.311Z,15.17
2019-04-04T08:42:06.056Z,14.03
2019-04-04T08:44:35.944Z,15.03
2019-04-04T08:47:05.695Z,16.73
2019-04-04T08:49:35.814Z,17.77
2019-04-04T08:52:16.123Z,16.00
2019-04-04T08:54:37.158Z,16.43
2019-04-04T08:57:07.155Z,16.27
2019-04-04T08:59:36.924Z,16.70
2019-04-04T09:02:06.724Z,16.40
2019-04-04T09:04:36.365Z,16.53
2019-04-04T09:07:05.984Z,15.93
2019-04-04T09:09:35.818Z,16.70
2019-04-04T09:12:05.739Z,16.97
2019-04-04T09:14:35.355Z,16.13
2019-04-04T09:17:05.039Z,17.70
2019-04-04T09:19:34.967Z,17.50
2019-04-04T09:22:04.761Z,17.37
2019-04-04T09:24:34.495Z,18.60
2019-04-04T09:27:04.212Z,18.17
2019-04-04T09:29:33.918Z,18.53
2019-04-04T09:32:03.634Z,18.10
2019-04-04T09:34:33.825Z,17.23
2019-04-04T09:37:03.558Z,16.73
2019-04-04T09:39:33.619Z,17.03
2019-04-04T09:42:03.435Z,16.33
2019-04-04T09:44:33.253Z,16.73
2019-04-04T09:47:05.695Z,16.77
2019-04-04T09:49:34.555Z,16.93
2019-04-04T09:52:04.249Z,16.13
2019-04-04T09:54:34.073Z,17.93
2019-04-04T09:57:03.749Z,17.33
2019-04-04T09:59:33.453Z,17.00
2019-04-04T10:02:03.186Z,17.10
2019-04-04T10:04:33.279Z,17.77
2019-04-04T10:07:02.883Z,19.10
2019-04-04T10:09:32.666Z,18.60
2019-04-04T10:12:02.273Z,19.37
2019-04-04T10:14:31.781Z,19.50
2019-04-04T10:17:01.672Z,19.40
2019-04-04T10:19:31.611Z,19.00
2019-04-04T10:22:01.178Z,19.83
2019-04-04T10:24:30.916Z,18.83
2019-04-04T10:27:00.751Z,19.73
2019-04-04T10:29:30.332Z,17.97
2019-04-04T10:31:59.910Z,18.13
2019-04-04T10:34:29.724Z,18.23
2019-04-04T10:36:59.303Z,16.67
2019-04-04T10:39:32.608Z,18.00
2019-04-04T10:42:00.635Z,16.73
2019-04-04T10:44:30.652Z,18.30
2019-04-04T10:47:00.219Z,17.97
2019-04-04T10:49:29.848Z,16.77
2019-04-04T10:51:59.550Z,18.93
2019-04-04T10:54:29.531Z,18.97
2019-04-04T10:56:59.082Z,19.27
2019-04-04T10:59:28.793Z,20.37
2019-04-04T11:02:00.908Z,18.97
2019-04-04T11:04:30.070Z,20.73
2019-04-04T11:06:59.805Z,19.70
2019-04-04T11:09:41.307Z,20.30
2019-04-04T11:12:00.840Z,20.83
2019-04-04T11:14:30.554Z,20.83
2019-04-04T11:17:00.614Z,21.73
2019-04-04T11:19:31.555Z,21.07
2019-04-04T11:22:01.354Z,21.07
2019-04-04T11:24:31.154Z,22.73
2019-04-04T11:27:00.783Z,23.10
2019-04-04T11:29:30.525Z,19.77
2019-04-04T11:32:00.078Z,23.17
2019-04-04T11:34:29.656Z,23.80
2019-04-04T11:36:59.313Z,22.47
2019-04-04T11:39:29.964Z,23.53
2019-04-04T11:41:59.554Z,24.00
2019-04-04T11:44:30.772Z,23.60
2019-04-04T11:47:00.806Z,21.67
2019-04-04T11:49:30.378Z,24.40
2019-04-04T11:52:00.074Z,23.73
2019-04-04T11:54:29.722Z,23.70
2019-04-04T11:56:59.372Z,25.57
2019-04-04T11:59:29.199Z,26.07
2019-04-04T12:01:59.429Z,27.03
2019-04-04T12:04:29.105Z,24.77
2019-04-04T12:06:58.762Z,24.97
2019-04-04T12:09:28.447Z,23.70
2019-04-04T12:11:58.278Z,24.20
2019-04-04T12:14:28.075Z,23.27
2019-04-04T12:16:57.743Z,24.23
2019-04-04T12:19:27.402Z,22.33
2019-04-04T12:21:57.076Z,22.07
2019-04-04T12:24:26.743Z,22.03
2019-04-04T12:26:56.502Z,21.47
2019-04-04T12:29:26.174Z,21.53
2019-04-04T12:31:55.700Z,20.67
2019-04-04T12:34:25.557Z,21.80
2019-04-04T12:36:55.238Z,19.93
2019-04-04T12:39:25.103Z,20.20
2019-04-04T12:41:54.944Z,19.23
2019-04-04T12:44:24.671Z,16.80
2019-04-04T12:46:54.399Z,20.13
2019-04-04T12:49:24.099Z,19.60
2019-04-04T12:51:53.928Z,19.63
2019-04-04T12:54:23.671Z,17.93
2019-04-04T12:56:53.417Z,16.70
2019-04-04T12:59:23.092Z,16.70
2019-04-04T13:01:52.845Z,16.93
2019-04-04T13:04:31.052Z,16.23
2019-04-04T13:06:54.136Z,15.40
2019-04-04T13:09:23.946Z,15.27
2019-04-04T13:11:53.723Z,16.43
2019-04-04T13:14:23.481Z,15.87
2019-04-04T13:16:53.131Z,14.00
2019-04-04T13:19:22.787Z,14.87
2019-04-04T13:21:52.453Z,14.30
2019-04-04T13:24:22.177Z,15.00
2019-04-04T13:26:52.212Z,14.30
2019-04-04T13:29:22.090Z,14.50
2019-04-04T13:31:51.717Z,14.60
2019-04-04T13:34:21.473Z,15.03
2019-04-04T13:36:51.653Z,15.50
2019-04-04T13:39:21.576Z,15.67
2019-04-04T13:41:51.606Z,15.63
2019-04-04T13:44:23.172Z,15.50
2019-04-04T13:46:52.819Z,15.60
2019-04-04T13:49:22.581Z,15.80
2019-04-04T13:51:53.084Z,16.13
2019-04-04T13:54:23.521Z,17.90
2019-04-04T13:56:53.249Z,16.77
2019-04-04T13:59:23.003Z,16.47
2019-04-04T14:01:53.024Z,18.97
2019-04-04T14:04:24.644Z,17.13
2019-04-04T14:06:55.468Z,17.80
2019-04-04T14:09:25.196Z,18.30
2019-04-04T14:11:54.965Z,18.90
2019-04-04T14:14:24.909Z,20.47
2019-04-04T14:16:55.021Z,20.03
2019-04-04T14:19:25.062Z,19.70
2019-04-04T14:21:55.262Z,20.30
2019-04-04T14:24:24.905Z,20.27
2019-04-04T14:26:54.631Z,20.07
2019-04-04T14:29:27.824Z,22.30
2019-04-04T14:31:56.024Z,20.73
2019-04-04T14:34:25.653Z,20.37
2019-04-04T14:36:55.977Z,21.47
2019-04-04T14:39:25.898Z,22.47
2019-04-04T14:41:55.797Z,23.77
2019-04-04T14:44:25.449Z,22.53
2019-04-04T14:46:55.272Z,23.60
2019-04-04T14:49:24.845Z,21.57
2019-04-04T14:51:55.520Z,22.40
2019-04-04T14:54:25.191Z,21.57
2019-04-04T14:56:55.302Z,22.70
2019-04-04T14:59:24.952Z,21.50
2019-04-04T15:01:54.847Z,20.00
2019-04-04T15:04:24.875Z,21.10
2019-04-04T15:06:54.514Z,19.70
2019-04-04T15:09:24.163Z,20.30
2019-04-04T15:11:53.874Z,20.67
2019-04-04T15:14:23.738Z,20.90
2019-04-04T15:16:53.705Z,19.00
2019-04-04T15:19:23.371Z,20.93
2019-04-04T15:21:53.111Z,20.53
2019-04-04T15:24:22.685Z,21.03
2019-04-04T15:26:52.551Z,20.60
2019-04-04T15:29:22.207Z,21.43
2019-04-04T15:31:51.876Z,19.60
2019-04-04T15:34:21.529Z,19.70
2019-04-04T15:36:51.317Z,19.93
2019-04-04T15:39:20.982Z,21.47
2019-04-04T15:41:50.846Z,21.23
2019-04-04T15:44:20.513Z,21.73
2019-04-04T15:46:50.169Z,22.00
2019-04-04T15:49:19.922Z,20.33
2019-04-04T15:51:49.585Z,20.83
2019-04-04T15:54:19.244Z,19.87
2019-04-04T15:56:48.935Z,20.37
2019-04-04T15:59:18.637Z,21.53
2019-04-04T16:01:48.317Z,21.13
2019-04-04T16:04:18.174Z,21.30
2019-04-04T16:06:47.867Z,23.37
2019-04-04T16:09:17.556Z,21.80
2019-04-04T16:11:49.769Z,22.07
2019-04-04T16:14:18.589Z,22.03
2019-04-04T16:16:48.552Z,23.50
2019-04-04T16:19:18.308Z,23.77
2019-04-04T16:21:48.017Z,23.60
2019-04-04T16:24:17.734Z,23.77
2019-04-04T16:26:47.462Z,24.93
2019-04-04T16:29:17.300Z,24.47
2019-04-04T16:31:47.038Z,24.50
2019-04-04T16:34:16.628Z,23.87
2019-04-04T16:36:46.384Z,24.20
2019-04-04T16:39:16.006Z,23.67
2019-04-04T16:41:46.349Z,24.77
2019-04-04T16:44:16.028Z,25.73
2019-04-04T16:46:45.636Z,25.27
2019-04-04T16:49:15.425Z,24.77
2019-04-04T16:51:45.037Z,24.47
2019-04-04T16:54:14.860Z,25.20
2019-04-04T16:56:44.501Z,26.03
2019-04-04T16:59:14.245Z,25.67
2019-04-04T17:01:43.918Z,25.47
2019-04-04T17:04:13.769Z,25.53
2019-04-04T17:06:43.438Z,25.77
2019-04-04T17:09:13.102Z,26.67
2019-04-04T17:11:42.853Z,26.30
2019-04-04T17:14:12.519Z,26.67
2019-04-04T17:16:42.126Z,24.27
2019-04-04T17:19:11.837Z,25.00
2019-04-04T17:21:41.581Z,24.77
2019-04-04T17:24:11.260Z,25.43
2019-04-04T17:26:41.022Z,25.17
2019-04-04T17:29:10.680Z,21.07
2019-04-04T17:31:40.375Z,21.47
2019-04-04T17:34:10.233Z,20.07
2019-04-04T17:36:39.950Z,20.37
2019-04-04T17:39:10.028Z,19.20
2019-04-04T17:41:39.750Z,19.20
2019-04-04T17:44:09.451Z,19.87
2019-04-04T17:46:39.220Z,20.20
2019-04-04T17:49:09.127Z,19.83
2019-04-04T17:51:38.958Z,18.33
2019-04-04T17:54:08.823Z,19.10
2019-04-04T17:56:38.830Z,19.20
2019-04-04T17:59:09.131Z,19.77
2019-04-04T18:01:39.355Z,19.50
2019-04-04T18:04:09.900Z,19.97
2019-04-04T18:06:40.781Z,18.47
2019-04-04T18:09:11.269Z,19.27
2019-04-04T18:12:00.512Z,19.93
2019-04-04T18:14:30.254Z,19.47
2019-04-04T18:17:00.513Z,19.63
2019-04-04T18:19:30.205Z,18.57
2019-04-04T18:21:59.987Z,19.30
2019-04-04T18:24:29.683Z,20.57
2019-04-04T18:27:00.819Z,21.00
2019-04-04T18:29:30.662Z,20.50
2019-04-04T18:32:00.509Z,19.87
2019-04-04T18:34:30.492Z,21.33
2019-04-04T18:37:00.675Z,20.53
2019-04-04T18:39:30.455Z,20.43
2019-04-04T18:42:00.886Z,21.67
2019-04-04T18:44:33.695Z,20.23
2019-04-04T18:47:03.849Z,21.40
2019-04-04T18:49:34.216Z,21.27
2019-04-04T18:52:04.363Z,21.53
2019-04-04T18:54:34.543Z,20.97
2019-04-04T18:57:04.703Z,22.30
2019-04-04T18:59:34.452Z,21.50
2019-04-04T19:02:04.169Z,22.53
2019-04-04T19:04:34.242Z,21.80
2019-04-04T19:07:03.964Z,21.50
2019-04-04T19:09:34.403Z,21.40
2019-04-04T19:12:05.965Z,21.37
2019-04-04T19:14:36.503Z,23.13
2019-04-04T19:17:06.170Z,21.47
2019-04-04T19:19:36.114Z,22.63
2019-04-04T19:22:06.129Z,21.83
2019-04-04T19:24:35.851Z,23.90
2019-04-04T19:27:06.515Z,23.13
2019-04-04T19:29:37.899Z,24.30
2019-04-04T19:32:07.550Z,24.70
2019-04-04T19:34:37.388Z,25.33
2019-04-04T19:37:07.284Z,25.77
2019-04-04T19:39:37.430Z,26.80
2019-04-04T19:42:08.675Z,26.37
2019-04-04T19:44:38.567Z,26.17
2019-04-04T19:47:08.749Z,26.03
2019-04-04T19:49:39.319Z,26.60
2019-04-04T19:52:09.141Z,26.87
2019-04-04T19:54:39.107Z,27.00
2019-04-04T19:57:08.829Z,26.03
2019-04-04T19:59:38.594Z,26.67
2019-04-04T20:02:11.194Z,26.27
2019-04-04T20:04:41.015Z,24.47
2019-04-04T20:07:10.922Z,27.33
2019-04-04T20:09:45.875Z,25.70
2019-04-04T20:12:16.313Z,26.53
2019-04-04T20:14:46.355Z,26.07
2019-04-04T20:17:16.245Z,26.33
2019-04-04T20:19:45.979Z,27.40
2019-04-04T20:22:15.805Z,27.10
2019-04-04T20:24:47.071Z,28.73
2019-04-04T20:27:17.019Z,26.93
2019-04-04T20:29:46.858Z,27.17
2019-04-04T20:32:16.716Z,26.97
2019-04-04T20:34:46.414Z,25.00
2019-04-04T20:37:16.090Z,25.90
2019-04-04T20:39:46.618Z,26.53
2019-04-04T20:42:16.368Z,26.23
2019-04-04T20:44:45.915Z,26.40
2019-04-04T20:47:15.725Z,25.70
2019-04-04T20:49:45.447Z,25.27
2019-04-04T20:52:16.797Z,26.43
2019-04-04T20:54:46.423Z,26.17
2019-04-04T20:57:16.174Z,25.23
2019-04-04T20:59:45.982Z,24.63
2019-04-04T21:02:17.140Z,26.10
2019-04-04T21:04:47.063Z,25.23
2019-04-04T21:07:17.320Z,25.13
2019-04-04T21:09:46.909Z,24.07
2019-04-04T21:12:21.207Z,26.20
2019-04-04T21:14:52.462Z,26.17
2019-04-04T21:17:22.144Z,26.07
2019-04-04T21:19:51.904Z,24.47
2019-04-04T21:22:27.355Z,26.07
2019-04-04T21:24:53.054Z,29.10
2019-04-04T21:27:22.806Z,29.27
2019-04-04T21:29:52.549Z,26.17
2019-04-04T21:32:23.730Z,25.90
2019-04-04T21:34:55.366Z,26.90
2019-04-04T21:37:25.523Z,26.40
2019-04-04T21:39:55.185Z,25.50
2019-04-04T21:42:25.884Z,24.63
2019-04-04T21:44:55.563Z,26.30
2019-04-04T21:47:25.314Z,24.90
2019-04-04T21:49:55.180Z,24.40
2019-04-04T21:52:24.730Z,24.13
2019-04-04T21:54:54.422Z,23.50
2019-04-04T21:57:24.112Z,22.83
2019-04-04T21:59:53.812Z,23.73
2019-04-04T22:02:23.931Z,24.40
2019-04-04T22:04:53.917Z,21.93
2019-04-04T22:07:23.628Z,22.97
2019-04-04T22:09:53.384Z,22.50
2019-04-04T22:12:23.003Z,21.97
2019-04-04T22:14:52.785Z,20.03
2019-04-04T22:17:22.378Z,21.53
2019-04-04T22:19:52.058Z,20.93
2019-04-04T22:22:21.722Z,21.00
2019-04-04T22:24:52.932Z,21.27
2019-04-04T22:27:22.730Z,20.50
2019-04-04T22:29:54.649Z,21.37
2019-04-04T22:32:25.172Z,20.27
2019-04-04T22:34:54.973Z,22.03
2019-04-04T22:37:24.778Z,21.33
2019-04-04T22:39:54.539Z,21.07
2019-04-04T22:42:24.178Z,19.90
2019-04-04T22:44:53.960Z,20.50
2019-04-04T22:47:23.692Z,19.03
2019-04-04T22:49:53.433Z,19.90
2019-04-04T22:52:23.092Z,19.87
2019-04-04T22:54:52.783Z,19.80
2019-04-04T22:57:22.494Z,19.63
2019-04-04T22:59:52.165Z,18.23
2019-04-04T23:02:21.822Z,18.53
2019-04-04T23:04:51.627Z,18.80
2019-04-04T23:07:21.312Z,18.43
2019-04-04T23:09:51.056Z,18.40
2019-04-04T23:12:20.765Z,18.20
2019-04-04T23:14:50.482Z,18.87
2019-04-04T23:17:20.274Z,17.93
2019-04-04T23:19:50.481Z,17.17
2019-04-04T23:22:20.165Z,16.83
2019-04-04T23:24:49.921Z,16.37
2019-04-04T23:27:19.554Z,15.37
2019-04-04T23:29:49.230Z,15.70
2019-04-04T23:32:19.402Z,15.27
2019-04-04T23:34:49.068Z,13.37
2019-04-04T23:37:18.729Z,13.67
2019-04-04T23:39:48.421Z,12.77
2019-04-04T23:42:18.107Z,14.23
2019-04-04T23:44:59.891Z,13.90
2019-04-04T23:47:19.573Z,14.30
2019-04-04T23:49:49.309Z,14.57
2019-04-04T23:52:18.943Z,14.40
2019-04-04T23:54:48.762Z,14.47
2019-04-04T23:57:19.006Z,14.47
2019-04-04T23:59:48.603Z,13.57
